Time;durP1;ratioP1;P1;durP2;ratioP2;P2;SDS_P1;SDS_P2;PMS_P1;PMS_P2;Temp;Humidity;BMP_temperature;BMP_pressure;BME280_temperature;BME280_humidity;BME280_pressure;Samples;Min_cycle;Max_cycle;Signal;HPM_P1;HPM_P2
2023/03/07 00:01:21;;;;;;;44.03;29.48;;;;;;;5.78;100.00;99735.63;5033361;28;20056;-75
2023/03/07 00:03:46;;;;;;;44.17;28.88;;;;;;;6.32;100.00;99793.81;5033287;28;20029;-75
2023/03/07 00:06:12;;;;;;;46.95;29.73;;;;;;;5.96;100.00;99735.41;5033352;28;20179;-74
2023/03/07 00:08:37;;;;;;;44.50;29.95;;;;;;;6.38;100.00;99801.31;5033263;28;20413;-75
2023/03/07 00:11:07;;;;;;;44.28;27.20;;;;;;;5.96;100.00;99752.25;5033058;28;20048;-75
2023/03/07 00:13:34;;;;;;;39.00;27.60;;;;;;;6.13;100.00;99795.72;5033591;28;20037;-75
2023/03/07 00:16:05;;;;;;;42.20;27.15;;;;;;;6.07;100.00;99740.31;5033226;28;20072;-75
2023/03/07 00:18:32;;;;;;;39.58;27.30;;;;;;;5.91;100.00;99742.22;5033120;28;20037;-75
2023/03/07 00:21:06;;;;;;;41.00;28.02;;;;;;;6.16;100.00;99730.06;5031803;28;20048;-75
2023/03/07 00:23:32;;;;;;;41.67;27.33;;;;;;;6.39;100.00;99773.50;5031491;28;20634;-75
2023/03/07 00:26:19;;;;;;;38.33;26.40;;;;;;;6.52;100.00;99774.97;5033154;28;20126;-75
2023/03/07 00:28:46;;;;;;;43.80;27.70;;;;;;;6.41;100.00;99766.75;5032803;28;20136;-75
2023/03/07 00:31:12;;;;;;;44.78;28.45;;;;;;;6.18;100.00;99755.31;5032751;28;20090;-75
2023/03/07 00:33:38;;;;;;;41.78;28.40;;;;;;;6.15;100.00;99710.75;5025572;28;20049;-75
2023/03/07 00:36:15;;;;;;;42.20;28.23;;;;;;;6.10;100.00;99760.47;5013103;28;20032;-75
2023/03/07 00:38:41;;;;;;;39.88;27.85;;;;;;;6.22;100.00;99777.13;5012934;28;20036;-75
2023/03/07 00:41:13;;;;;;;40.20;28.45;;;;;;;5.97;100.00;99769.88;5012537;28;20038;-75
2023/03/07 00:43:39;;;;;;;;;;;;;;;6.14;100.00;99782.25;5013675;28;20050;-75
2023/03/07 00:46:05;;;;;;;42.90;27.45;;;;;;;5.47;100.00;99736.03;5013006;28;19971;-75
2023/03/07 00:48:37;;;;;;;42.28;28.27;;;;;;;5.60;100.00;99768.63;5011382;28;20515;-75
2023/03/07 00:51:04;;;;;;;40.65;27.50;;;;;;;5.13;100.00;99701.09;5013029;28;20034;-75
2023/03/07 00:53:30;;;;;;;44.20;28.92;;;;;;;5.62;100.00;99756.84;5012941;28;20053;-75
2023/03/07 00:56:00;;;;;;;42.58;28.63;;;;;;;5.13;100.00;99688.50;5012508;28;20034;-75
2023/03/07 00:58:27;;;;;;;43.55;29.35;;;;;;;5.31;100.00;99742.06;5011250;28;20480;-75
2023/03/07 01:00:53;;;;;;;42.42;28.77;;;;;;;4.95;100.00;99703.78;5012393;28;20037;-75
2023/03/07 01:03:19;;;;;;;43.28;29.20;;;;;;;4.69;100.00;99687.28;5012486;28;20084;-75
2023/03/07 01:05:45;;;;;;;43.25;29.13;;;;;;;5.38;100.00;99739.47;5012542;28;20034;-75
2023/03/07 01:08:11;;;;;;;40.83;28.25;;;;;;;5.08;100.00;99742.31;5011479;28;20036;-75
2023/03/07 01:10:37;;;;;;;40.67;28.38;;;;;;;4.60;100.00;99647.06;5011883;28;20026;-75
2023/03/07 01:13:03;;;;;;;37.95;26.10;;;;;;;4.92;100.00;99713.91;5011195;28;20041;-75
2023/03/07 01:15:29;;;;;;;43.63;28.50;;;;;;;4.77;100.00;99668.75;5012163;28;20026;-75
2023/03/07 01:17:54;;;;;;;41.80;27.92;;;;;;;4.92;100.00;99698.81;5010913;28;20104;-75
2023/03/07 01:20:20;;;;;;;46.45;29.60;;;;;;;4.76;100.00;99664.53;5012416;28;20473;-75
2023/03/07 01:22:45;;;;;;;42.95;28.48;;;;;;;4.73;100.00;99667.13;5012284;28;20108;-75
2023/03/07 01:25:12;;;;;;;42.28;28.67;;;;;;;4.77;100.00;99658.69;5012564;28;20525;-75
2023/03/07 01:27:37;;;;;;;43.45;27.48;;;;;;;5.09;100.00;99722.13;5011316;28;20176;-74
2023/03/07 01:30:04;;;;;;;41.95;27.73;;;;;;;4.92;100.00;99710.56;5012445;28;20080;-75
2023/03/07 01:32:29;;;;;;;41.20;28.27;;;;;;;4.39;100.00;99651.47;5011376;28;20030;-75
2023/03/07 01:34:55;;;;;;;43.20;28.92;;;;;;;4.22;100.00;99617.22;5011309;28;20053;-75
2023/03/07 01:37:21;;;;;;;42.90;28.13;;;;;;;4.56;100.00;99709.19;5012254;28;20076;-75
2023/03/07 01:39:50;;;;;;;40.38;27.15;;;;;;;4.71;100.00;99693.13;5010509;28;20080;-75
2023/03/07 01:42:18;;;;;;;39.42;27.15;;;;;;;4.61;100.00;99642.06;5011788;28;20050;-75
2023/03/07 01:45:06;;;;;;;39.03;26.52;;;;;;;4.98;100.00;99693.72;5010976;28;20049;-75
2023/03/07 01:47:31;;;;;;;37.17;25.50;;;;;;;4.82;100.00;99667.00;5012047;28;20105;-75
2023/03/07 01:49:59;;;;;;;39.40;26.17;;;;;;;4.62;100.00;99653.78;5011999;28;20116;-75
2023/03/07 01:52:40;;;;;;;36.78;25.55;;;;;;;4.85;100.00;99676.22;5010476;28;20184;-75
2023/03/07 01:55:12;;;;;;;40.40;27.80;;;;;;;4.60;100.00;99621.91;5012039;28;20030;-75
2023/03/07 01:57:41;;;;;;;42.08;27.50;;;;;;;4.50;100.00;99623.69;5012040;28;20026;-75
2023/03/07 02:00:10;;;;;;;43.53;28.00;;;;;;;4.58;100.00;99616.06;5011840;28;20045;-74
2023/03/07 02:02:42;;;;;;;41.28;27.70;;;;;;;4.86;100.00;99668.66;5011566;28;20033;-72
2023/03/07 02:05:24;;;;;;;39.92;26.45;;;;;;;4.40;100.00;99624.63;5011398;28;20049;-72
2023/03/07 02:07:51;;;;;;;37.80;25.98;;;;;;;4.95;100.00;99673.56;5010597;28;20032;-73
2023/03/07 02:10:20;;;;;;;40.78;25.30;;;;;;;4.47;100.00;99602.75;5011221;28;20065;-73
2023/03/07 02:12:47;;;;;;;35.25;24.70;;;;;;;4.70;100.00;99669.66;5011973;28;20112;-73
2023/03/07 02:15:13;;;;;;;36.67;24.45;;;;;;;4.91;100.00;99674.44;5011073;28;20097;-73
2023/03/07 02:17:41;;;;;;;34.17;24.50;;;;;;;4.91;100.00;99671.94;5010159;28;20061;-73
2023/03/07 02:20:09;;;;;;;34.35;24.63;;;;;;;4.66;100.00;99673.03;5011218;28;20509;-73
2023/03/07 02:22:35;;;;;;;36.03;24.05;;;;;;;4.29;100.00;99613.84;5013719;28;20037;-75
2023/03/07 02:25:14;;;;;;;38.10;24.52;;;;;;;4.43;100.00;99613.69;5015199;28;20451;-75
2023/03/07 02:27:40;;;;;;;35.80;23.63;;;;;;;4.22;100.00;99617.22;5050005;28;20112;-75
2023/03/07 02:30:06;;;;;;;36.55;24.13;;;;;;;4.41;100.00;99646.44;5055146;28;20424;-75
2023/03/07 02:32:32;;;;;;;37.78;24.20;;;;;;;3.90;100.00;99586.50;5054607;28;20025;-75
2023/03/07 02:34:57;;;;;;;36.28;24.45;;;;;;;4.39;100.00;99630.50;5054674;28;20044;-75
2023/03/07 02:37:36;;;;;;;36.10;25.33;;;;;;;4.50;100.00;99663.94;5054665;28;20536;-73
2023/03/07 02:40:07;;;;;;;36.22;24.98;;;;;;;4.75;100.00;99677.16;5051467;28;20032;-75
2023/03/07 02:42:36;;;;;;;35.72;25.00;;;;;;;4.46;100.00;99658.97;5015094;28;20039;-75
2023/03/07 02:45:05;;;;;;;36.17;23.98;;;;;;;4.22;100.00;99668.38;5027621;28;20106;-75
2023/03/07 02:47:30;;;;;;;34.60;23.15;;;;;;;3.93;100.00;99581.44;5035111;28;20033;-75
2023/03/07 02:49:55;;;;;;;34.28;24.02;;;;;;;4.42;100.00;99652.31;5034156;28;20404;-74
2023/03/07 02:52:22;;;;;;;36.30;23.65;;;;;;;4.52;100.00;99666.44;5033632;28;20040;-75
2023/03/07 02:54:47;;;;;;;35.40;23.42;;;;;;;4.55;100.00;99671.47;5032849;28;20628;-75
2023/03/07 02:57:14;;;;;;;39.20;25.17;;;;;;;4.23;100.00;99617.25;5031880;28;20120;-75
2023/03/07 02:59:40;;;;;;;37.13;24.88;;;;;;;4.19;100.00;99633.19;5033639;28;20499;-75
2023/03/07 03:02:06;;;;;;;40.58;26.73;;;;;;;4.32;100.00;99686.75;5033267;28;20034;-75
2023/03/07 03:04:31;;;;;;;39.05;24.73;;;;;;;4.52;100.00;99681.53;5034431;28;20033;-75
2023/03/07 03:06:57;;;;;;;36.20;24.58;;;;;;;4.28;100.00;99617.19;5034580;28;20470;-75
2023/03/07 03:09:22;;;;;;;34.60;23.77;;;;;;;4.43;100.00;99637.19;5033119;28;20408;-75
2023/03/07 03:11:48;;;;;;;36.70;24.30;;;;;;;4.35;100.00;99621.31;5033889;28;20030;-75
2023/03/07 03:14:13;;;;;;;34.95;24.35;;;;;;;3.83;100.00;99618.38;5033149;28;20407;-75
2023/03/07 03:16:39;;;;;;;38.10;25.50;;;;;;;4.28;100.00;99619.69;5034246;28;20033;-73
2023/03/07 03:19:05;;;;;;;36.30;24.48;;;;;;;4.36;100.00;99689.22;5033160;28;20025;-72
2023/03/07 03:21:31;;;;;;;38.45;24.58;;;;;;;4.13;100.00;99618.16;5034416;28;20111;-72
2023/03/07 03:23:56;;;;;;;41.65;25.27;;;;;;;3.77;100.00;99618.41;5034028;28;20038;-73
2023/03/07 03:26:21;;;;;;;37.47;25.27;;;;;;;4.12;100.00;99678.53;5033407;28;20095;-73
2023/03/07 03:28:47;;;;;;;35.20;24.17;;;;;;;3.88;100.00;99621.69;5039755;28;20029;-73
2023/03/07 03:31:15;;;;;;;39.17;25.40;;;;;;;3.77;100.00;99690.47;5034265;28;20048;-73
2023/03/07 03:33:45;;;;;;;42.35;27.02;;;;;;;3.88;100.00;99681.22;5018800;28;20034;-74
2023/03/07 03:36:15;;;;;;;38.65;25.70;;;;;;;3.97;100.00;99684.50;5042283;28;20058;-75
2023/03/07 03:38:41;;;;;;;41.30;27.33;;;;;;;4.01;100.00;99676.09;5040427;28;20100;-75
2023/03/07 03:41:10;;;;;;;40.53;26.85;;;;;;;4.26;100.00;99654.94;5033576;28;20045;-75
2023/03/07 03:43:35;;;;;;;44.78;27.63;;;;;;;3.90;100.00;99621.69;5033624;28;20049;-75
2023/03/07 03:46:01;;;;;;;41.33;27.65;;;;;;;3.85;100.00;99618.38;5032773;28;20036;-75
2023/03/07 03:48:27;;;;;;;40.35;27.05;;;;;;;3.41;100.00;99580.94;5033743;28;20029;-76
2023/03/07 03:51:07;;;;;;;39.72;27.85;;;;;;;3.82;100.00;99611.69;5035904;28;20392;-75
2023/03/07 03:53:35;;;;;;;40.22;26.15;;;;;;;3.98;100.00;99630.03;5037561;28;20036;-75
2023/03/07 03:56:10;;;;;;;39.58;26.40;;;;;;;4.21;100.00;99655.81;5036420;28;20123;-75
2023/03/07 03:58:37;;;;;;;40.03;26.73;;;;;;;4.10;100.00;99589.69;5032020;28;20040;-73
2023/03/07 04:01:06;;;;;;;43.47;27.33;;;;;;;4.65;100.00;99653.75;5032386;28;20511;-75
2023/03/07 04:03:38;;;;;;;40.20;26.27;;;;;;;4.55;100.00;99652.19;5032252;28;20523;-75
2023/03/07 04:06:06;;;;;;;42.00;27.05;;;;;;;4.03;100.00;99585.53;5027598;28;20041;-75
2023/03/07 04:08:33;;;;;;;45.17;28.25;;;;;;;3.86;100.00;99590.72;5033246;28;20036;-74
2023/03/07 04:10:59;;;;;;;45.88;28.50;;;;;;;4.12;100.00;99643.31;5032209;28;20039;-75
2023/03/07 04:13:24;;;;;;;44.47;27.77;;;;;;;3.86;100.00;99587.38;5031828;28;20116;-75
2023/03/07 04:15:51;;;;;;;44.30;26.92;;;;;;;4.02;100.00;99634.19;5032012;28;20361;-75
2023/03/07 04:18:17;;;;;;;43.63;26.80;;;;;;;4.24;100.00;99639.00;5032361;28;20353;-72
2023/03/07 04:20:43;;;;;;;40.58;26.23;;;;;;;4.27;100.00;99576.13;5032902;28;20037;-74
2023/03/07 04:23:09;;;;;;;44.38;27.35;;;;;;;4.23;100.00;99584.53;5033225;28;20025;-74
2023/03/07 04:25:35;;;;;;;43.78;28.02;;;;;;;4.49;100.00;99628.75;5035648;28;20413;-75
2023/03/07 04:28:00;;;;;;;41.45;27.50;;;;;;;4.21;100.00;99590.41;5031716;28;20033;-74
2023/03/07 04:30:25;;;;;;;42.15;27.52;;;;;;;4.51;100.00;99650.53;5031062;28;20436;-75
2023/03/07 04:32:51;;;;;;;46.55;28.13;;;;;;;4.15;100.00;99641.63;5041297;28;20029;-74
2023/03/07 04:35:16;;;;;;;43.38;28.60;;;;;;;4.26;100.00;99601.25;5030810;28;20026;-73
2023/03/07 04:37:42;;;;;;;47.50;31.45;;;;;;;3.95;100.00;99547.06;5021845;28;20030;-72
2023/03/07 04:40:09;;;;;;;49.33;31.95;;;;;;;4.06;100.00;99661.78;5032147;28;20041;-71
2023/03/07 04:42:34;;;;;;;49.10;33.10;;;;;;;4.03;100.00;99653.44;5051631;28;20136;-72
2023/03/07 04:44:59;;;;;;;53.40;34.38;;;;;;;3.98;100.00;99652.66;5051474;28;20056;-74
2023/03/07 04:47:25;;;;;;;52.30;34.65;;;;;;;4.13;100.00;99660.06;5040690;28;20115;-73
2023/03/07 04:49:51;;;;;;;50.10;30.88;;;;;;;3.55;100.00;99642.00;5032316;28;20055;-75
2023/03/07 04:52:17;;;;;;;47.58;29.10;;;;;;;3.88;100.00;99659.38;5031287;28;20480;-72
2023/03/07 04:54:42;;;;;;;129.45;28.25;;;;;;;3.71;100.00;99663.69;5030627;28;20041;-72
2023/03/07 04:57:08;;;;;;;50.97;26.63;;;;;;;3.29;100.00;99594.41;5031158;28;20037;-74
2023/03/07 04:59:37;;;;;;;55.47;27.15;;;;;;;3.81;100.00;99674.53;5031030;28;20037;-75
2023/03/07 05:02:06;;;;;;;51.33;27.63;;;;;;;3.07;100.00;99590.34;5031008;28;20044;-75
2023/03/07 05:04:32;;;;;;;48.42;25.92;;;;;;;4.22;100.00;99609.69;5031429;28;20029;-77
2023/03/07 05:06:58;;;;;;;66.82;27.10;;;;;;;3.41;100.00;99669.72;5031797;28;20590;-73
2023/03/07 05:09:23;;;;;;;73.10;26.90;;;;;;;3.43;100.00;99682.25;5031661;28;20040;-74
2023/03/07 05:11:48;;;;;;;65.00;26.83;;;;;;;3.58;100.00;99595.94;5029896;28;20034;-77
2023/03/07 05:14:14;;;;;;;65.45;27.73;;;;;;;3.69;100.00;99625.16;5029797;28;20031;-76
2023/03/07 05:16:39;;;;;;;66.57;27.45;;;;;;;3.85;100.00;99644.34;5031046;28;20037;-75
2023/03/07 05:19:05;;;;;;;48.90;26.55;;;;;;;3.76;100.00;99683.78;5031487;28;20496;-76
2023/03/07 05:21:31;;;;;;;67.53;26.45;;;;;;;3.20;100.00;99586.94;5031485;28;20099;-76
2023/03/07 05:23:56;;;;;;;54.38;30.00;;;;;;;4.06;100.00;99689.44;5030652;28;20037;-78
2023/03/07 05:26:22;;;;;;;55.40;32.70;;;;;;;4.43;100.00;99677.44;5031454;28;20547;-79
2023/03/07 05:28:48;;;;;;;54.95;29.35;;;;;;;4.23;100.00;99690.19;5030778;28;20064;-75
2023/03/07 05:31:13;;;;;;;60.17;26.70;;;;;;;4.60;100.00;99684.84;5031400;28;20034;-77
2023/03/07 05:33:41;;;;;;;49.58;25.83;;;;;;;4.98;100.00;99692.88;5031147;28;20063;-73
2023/03/07 05:36:07;;;;;;;44.88;23.38;;;;;;;5.47;100.00;99683.09;5031469;28;20030;-75
2023/03/07 05:38:33;;;;;;;42.15;24.80;;;;;;;6.16;100.00;99671.22;5031080;28;20033;-72
2023/03/07 05:40:59;;;;;;;41.55;25.00;;;;;;;7.13;100.00;99700.69;5031131;28;20063;-75
2023/03/07 05:43:24;;;;;;;37.78;23.83;;;;;;;7.20;100.00;99667.69;5031649;28;20385;-71
2023/03/07 05:45:49;;;;;;;40.53;23.95;;;;;;;7.87;100.00;99685.66;5031658;28;20457;-72
2023/03/07 05:48:15;;;;;;;36.03;21.48;;;;;;;7.40;100.00;99667.28;5014712;28;20088;-72
2023/03/07 05:50:41;;;;;;;34.60;22.60;;;;;;;5.90;100.00;99659.00;5028660;28;20041;-74
2023/03/07 05:53:07;;;;;;;36.72;23.13;;;;;;;5.20;100.00;99627.13;5030384;28;20510;-74
2023/03/07 05:55:33;;;;;;;34.45;22.55;;;;;;;5.58;100.00;99618.22;5030562;28;20080;-74
2023/03/07 05:57:59;;;;;;;38.38;24.60;;;;;;;5.43;100.00;99684.78;5032221;28;20036;-75
2023/03/07 06:00:26;;;;;;;39.28;23.83;;;;;;;4.86;100.00;99584.72;5034050;28;20021;-75
2023/03/07 06:02:57;;;;;;;37.47;23.65;;;;;;;6.17;100.00;99698.94;5035293;28;20132;-75
2023/03/07 06:05:22;;;;;;;36.25;22.75;;;;;;;5.90;100.00;99685.03;5035349;28;20021;-76
2023/03/07 06:07:49;;;;;;;32.28;21.25;;;;;;;6.09;100.00;99695.69;5035230;28;20022;-74
2023/03/07 06:10:14;;;;;;;30.48;20.58;;;;;;;6.43;100.00;99685.94;5033777;28;20057;-74
2023/03/07 06:12:40;;;;;;;32.60;20.52;;;;;;;6.83;100.00;99629.63;5035821;28;20174;-75
2023/03/07 06:15:07;;;;;;;32.10;22.55;;;;;;;6.82;100.00;99637.25;5033275;28;20087;-75
2023/03/07 06:17:33;;;;;;;30.80;21.10;;;;;;;7.19;100.00;99698.88;5034141;28;20029;-74
2023/03/07 06:19:58;;;;;;;29.42;21.98;;;;;;;7.39;100.00;99683.34;5034044;28;20531;-74
2023/03/07 06:22:24;;;;;;;32.97;23.35;;;;;;;7.53;100.00;99683.88;5033777;28;20460;-75
2023/03/07 06:24:49;;;;;;;32.28;23.05;;;;;;;7.87;100.00;99670.50;5033593;28;20106;-73
2023/03/07 06:27:15;;;;;;;31.38;22.92;;;;;;;7.53;100.00;99676.28;5034715;28;20064;-73
2023/03/07 06:29:41;;;;;;;33.65;23.73;;;;;;;8.02;100.00;99676.91;5035005;28;20041;-75
2023/03/07 06:32:06;;;;;;;33.40;24.42;;;;;;;8.23;100.00;99662.91;5034478;28;20033;-75
2023/03/07 06:34:33;;;;;;;34.85;25.30;;;;;;;8.52;100.00;99618.31;5034801;28;20155;-73
2023/03/07 06:36:58;;;;;;;37.70;25.52;;;;;;;8.87;100.00;99568.41;5034606;28;20036;-75
2023/03/07 06:39:25;;;;;;;31.52;23.48;;;;;;;9.43;100.00;99672.44;5034919;28;20029;-75
2023/03/07 06:41:52;;;;;;;29.27;22.77;;;;;;;9.40;100.00;99608.28;5033588;28;20055;-75
2023/03/07 06:44:25;;;;;;;35.00;23.50;;;;;;;9.61;100.00;99607.63;5033199;28;20048;-75
2023/03/07 06:46:51;;;;;;;31.40;22.75;;;;;;;9.24;100.00;99600.28;5034988;28;20036;-75
2023/03/07 06:49:16;;;;;;;32.70;25.23;;;;;;;9.60;100.00;99622.03;5034741;28;20029;-71
2023/03/07 06:51:42;;;;;;;34.05;24.30;;;;;;;9.62;100.00;99654.97;5033529;28;20438;-72
2023/03/07 06:54:07;;;;;;;29.50;22.65;;;;;;;9.31;100.00;99567.97;5034562;28;20029;-75
2023/03/07 06:56:34;;;;;;;29.42;22.42;;;;;;;10.14;100.00;99578.06;5033298;28;20121;-73
2023/03/07 06:58:59;;;;;;;31.52;22.98;;;;;;;10.48;100.00;99640.41;5032978;28;20025;-74
2023/03/07 07:01:25;;;;;;;31.92;23.70;;;;;;;11.16;100.00;99629.56;5033420;28;20095;-73
2023/03/07 07:03:50;;;;;;;31.15;21.95;;;;;;;10.50;100.00;99631.94;5034340;28;20060;-73
2023/03/07 07:06:16;;;;;;;29.63;21.60;;;;;;;11.08;100.00;99603.59;5032548;28;20099;-71
2023/03/07 07:08:41;;;;;;;27.77;22.45;;;;;;;11.08;100.00;99629.03;5033148;28;20447;-72
2023/03/07 07:11:07;;;;;;;30.77;21.85;;;;;;;10.78;100.00;99646.19;5032685;28;20029;-72
2023/03/07 07:13:32;;;;;;;30.17;21.20;;;;;;;10.82;100.00;99646.91;5034279;28;20124;-74
2023/03/07 07:16:04;;;;;;;29.70;24.40;;;;;;;11.87;100.00;99647.28;5031879;28;20037;-75
2023/03/07 07:18:29;;;;;;;;;;;;;;;11.38;100.00;99645.72;5033375;28;20049;-73
2023/03/07 07:20:55;;;;;;;29.80;22.60;;;;;;;11.64;100.00;99606.56;5034136;28;19960;-74
2023/03/07 07:23:21;;;;;;;25.98;19.67;;;;;;;12.01;100.00;99640.78;5033667;28;20475;-73
2023/03/07 07:25:47;;;;;;;25.80;21.65;;;;;;;12.02;100.00;99655.16;5033819;28;20034;-73
2023/03/07 07:28:12;;;;;;;45.00;35.45;;;;;;;11.91;100.00;99634.38;5033096;28;20036;-74
2023/03/07 07:30:38;;;;;;;27.40;21.90;;;;;;;11.76;100.00;99634.97;5033677;28;20033;-75
2023/03/07 07:33:03;;;;;;;51.83;38.05;;;;;;;12.09;100.00;99609.91;5032872;28;20041;-73
2023/03/07 07:35:29;;;;;;;24.90;20.05;;;;;;;12.20;100.00;99588.19;5034316;28;20032;-74
2023/03/07 07:37:54;;;;;;;24.58;19.48;;;;;;;12.54;100.00;99612.31;5033528;28;20048;-74
2023/03/07 07:40:20;;;;;;;25.73;19.33;;;;;;;12.44;100.00;99595.72;5031957;28;20040;-74
2023/03/07 07:42:53;;;;;;;23.58;18.02;;;;;;;12.74;100.00;99637.78;5032475;28;20109;-74
2023/03/07 07:45:20;;;;;;;22.80;18.48;;;;;;;11.78;100.00;99576.34;5032503;28;20030;-73
2023/03/07 07:47:48;;;;;;;23.67;18.65;;;;;;;13.52;100.00;99634.31;5032343;28;20065;-73
2023/03/07 07:50:17;;;;;;;21.13;17.55;;;;;;;13.78;100.00;99622.91;5032157;28;20041;-74
2023/03/07 07:52:43;;;;;;;23.13;18.00;;;;;;;13.38;100.00;99641.78;5032341;28;20039;-73
2023/03/07 07:55:09;;;;;;;25.15;18.45;;;;;;;13.41;100.00;99631.41;5032371;28;20120;-74
2023/03/07 07:57:35;;;;;;;22.58;18.27;;;;;;;13.69;100.00;99619.03;5032464;28;20122;-73
2023/03/07 08:00:02;;;;;;;20.25;15.80;;;;;;;13.91;100.00;99616.31;5032532;28;20083;-73
2023/03/07 08:02:29;;;;;;;22.80;17.02;;;;;;;14.01;100.00;99609.84;5032477;28;20124;-74
2023/03/07 08:04:54;;;;;;;23.13;15.77;;;;;;;13.78;100.00;99620.34;5033425;28;20026;-74
2023/03/07 08:07:20;;;;;;;19.02;14.73;;;;;;;13.41;100.00;99621.19;5032660;28;20498;-74
2023/03/07 08:09:45;;;;;;;16.27;13.48;;;;;;;14.00;100.00;99610.78;5032973;28;20029;-73
2023/03/07 08:12:11;;;;;;;18.25;13.00;;;;;;;13.70;100.00;99613.06;5031723;28;20029;-74
2023/03/07 08:14:37;;;;;;;16.25;13.48;;;;;;;13.96;100.00;99595.66;5031651;28;20067;-73
2023/03/07 08:17:02;;;;;;;16.50;11.75;;;;;;;14.55;100.00;99611.47;5032853;28;20105;-73
2023/03/07 08:19:28;;;;;;;20.08;12.43;;;;;;;13.41;100.00;99526.72;5033411;28;20033;-73
2023/03/07 08:21:53;;;;;;;17.15;12.45;;;;;;;13.42;100.00;99612.66;5032423;28;20385;-73
2023/03/07 08:24:19;;;;;;;21.23;12.48;;;;;;;14.36;100.00;99554.50;5032087;28;20063;-73
2023/03/07 08:26:44;;;;;;;18.02;13.15;;;;;;;14.67;100.00;99604.03;5030958;28;20029;-73
2023/03/07 08:29:10;;;;;;;14.52;12.32;;;;;;;14.28;100.00;99602.63;5031330;28;20029;-73
2023/03/07 08:31:35;;;;;;;19.02;12.63;;;;;;;14.65;100.00;99600.72;5031320;28;20030;-74
2023/03/07 08:34:00;;;;;;;15.80;12.05;;;;;;;15.19;100.00;99597.00;5030450;28;20060;-73
2023/03/07 08:36:26;;;;;;;23.58;16.52;;;;;;;14.95;100.00;99602.63;5032102;28;20030;-74
2023/03/07 08:38:51;;;;;;;16.35;12.05;;;;;;;15.01;100.00;99594.63;5030503;28;20064;-73
2023/03/07 08:41:18;;;;;;;17.67;11.90;;;;;;;14.55;100.00;99593.59;5032377;28;20041;-74
2023/03/07 08:43:44;;;;;;;15.45;11.70;;;;;;;14.78;100.00;99593.22;5032453;28;20195;-73
2023/03/07 08:46:09;;;;;;;14.40;9.93;;;;;;;14.63;100.00;99586.34;5032304;28;20116;-74
2023/03/07 08:48:35;;;;;;;14.27;11.00;;;;;;;14.78;100.00;99558.25;5030626;28;20033;-73
2023/03/07 08:51:09;;;;;;;20.77;14.02;;;;;;;15.10;100.00;99607.75;5032229;28;20405;-73
2023/03/07 08:53:36;;;;;;;18.58;12.98;;;;;;;15.49;100.00;99605.66;5031359;28;20121;-74
2023/03/07 08:56:06;;;;;;;18.38;12.30;;;;;;;16.05;100.00;99604.28;5030820;28;20036;-73
2023/03/07 08:58:31;;;;;;;13.40;10.70;;;;;;;15.62;100.00;99552.03;5030678;28;20026;-73
2023/03/07 09:00:57;;;;;;;12.20;10.45;;;;;;;15.71;100.00;99597.63;5030227;28;20504;-73
2023/03/07 09:03:23;;;;;;;14.63;10.35;;;;;;;15.23;100.00;99600.25;5030640;28;20033;-73
2023/03/07 09:05:48;;;;;;;18.60;11.23;;;;;;;15.49;100.00;99563.84;5030865;28;20036;-73
2023/03/07 09:08:13;;;;;;;13.90;9.88;;;;;;;15.00;100.00;99549.44;5030656;28;20543;-73
2023/03/07 09:10:39;;;;;;;13.15;9.60;;;;;;;14.07;100.00;99570.41;5030252;28;20103;-73
2023/03/07 09:13:04;;;;;;;16.00;10.68;;;;;;;15.18;100.00;99597.09;5030444;28;20057;-73
2023/03/07 09:15:30;;;;;;;10.68;8.80;;;;;;;15.14;100.00;99514.50;5031493;28;20393;-73
2023/03/07 09:17:56;;;;;;;14.70;9.07;;;;;;;15.55;100.00;99596.81;5030808;28;20033;-72
2023/03/07 09:20:21;;;;;;;14.73;8.60;;;;;;;15.76;100.00;99566.63;5031563;28;20041;-72
2023/03/07 09:22:46;;;;;;;11.13;8.40;;;;;;;15.42;100.00;99517.25;5031709;28;20480;-73
2023/03/07 09:25:12;;;;;;;11.35;8.02;;;;;;;15.81;100.00;99555.19;5031598;28;20032;-73
2023/03/07 09:27:38;;;;;;;25.20;17.33;;;;;;;14.88;100.00;99558.59;5030243;28;20045;-73
2023/03/07 09:30:04;;;;;;;12.13;8.63;;;;;;;16.11;100.00;99593.66;5031369;28;20128;-74
2023/03/07 09:32:32;;;;;;;10.50;8.40;;;;;;;15.65;100.00;99586.91;5029814;28;20033;-73
2023/03/07 09:34:58;;;;;;;11.73;8.63;;;;;;;15.98;100.00;99592.72;5031216;28;20558;-74
2023/03/07 09:37:23;;;;;;;10.07;8.90;;;;;;;16.42;100.00;99608.94;5031364;28;20025;-73
2023/03/07 09:39:49;;;;;;;11.35;8.43;;;;;;;15.40;100.00;99597.63;5029809;28;20040;-74
2023/03/07 09:42:21;;;;;;;11.05;8.02;;;;;;;16.35;100.00;99598.25;5031360;28;20488;-73
2023/03/07 09:44:57;;;;;;;10.55;7.40;;;;;;;15.75;100.00;99596.56;5029665;28;20135;-73
2023/03/07 09:48:00;;;;;;;12.05;8.45;;;;;;;17.01;100.00;99598.63;5031511;28;20088;-74
2023/03/07 09:50:44;;;;;;;12.48;8.23;;;;;;;15.49;100.00;99597.97;5030186;28;20393;-73
2023/03/07 09:53:17;;;;;;;12.35;9.15;;;;;;;16.10;100.00;99551.00;5030517;28;20061;-74
2023/03/07 09:55:43;;;;;;;13.60;8.38;;;;;;;17.31;100.00;99586.44;5031054;28;20526;-73
2023/03/07 09:58:17;;;;;;;20.33;14.02;;;;;;;16.11;100.00;99586.81;5029720;28;20029;-74
2023/03/07 10:00:44;;;;;;;19.35;11.43;;;;;;;17.57;100.00;99589.19;5029835;28;20551;-74
2023/03/07 10:03:32;;;;;;;11.05;7.82;;;;;;;17.51;100.00;99566.44;5031357;28;20051;-74
2023/03/07 10:06:22;;;;;;;11.10;8.20;;;;;;;16.69;100.00;99586.88;5030530;28;20038;-74
2023/03/07 10:08:47;;;;;;;11.77;7.20;;;;;;;16.42;100.00;99535.38;5029701;28;20120;-72
2023/03/07 10:11:15;;;;;;;11.10;7.65;;;;;;;17.35;100.00;99575.06;5030182;28;20068;-74
2023/03/07 10:14:32;;;;;;;10.40;8.00;;;;;;;17.97;100.00;99567.69;5030172;28;20091;-75
2023/03/07 10:17:41;;;;;;;10.73;8.00;;;;;;;17.70;100.00;99525.78;5008506;28;20048;-74
2023/03/07 10:20:21;;;;;;;11.75;6.88;;;;;;;17.41;100.00;99576.41;5029873;28;20523;-73
2023/03/07 10:22:56;;;;;;;10.50;6.70;;;;;;;17.31;100.00;99509.34;5030167;28;20416;-75
2023/03/07 10:25:36;;;;;;;10.98;7.85;;;;;;;17.42;100.00;99562.66;5031524;28;20034;-75
2023/03/07 10:28:46;;;;;;;11.25;6.90;;;;;;;18.08;100.00;99558.34;5031173;28;20606;-76
2023/03/07 10:31:25;;;;;;;11.80;6.18;;;;;;;18.41;100.00;99557.06;5026539;28;20419;-75
2023/03/07 10:33:54;;;;;;;9.52;5.90;;;;;;;17.82;100.00;99524.97;5029623;28;20042;-75
2023/03/07 10:36:32;;;;;;;9.82;6.50;;;;;;;16.47;100.00;99564.16;5031259;28;20093;-76
2023/03/07 10:39:12;;;;;;;8.70;6.35;;;;;;;18.18;100.00;99541.41;5026258;28;20033;-75
2023/03/07 10:41:37;;;;;;;9.98;5.38;;;;;;;16.92;100.00;99550.34;5040632;28;20033;-78
2023/03/07 10:44:03;;;;;;;10.27;5.55;;;;;;;17.75;100.00;99503.16;5052840;28;20049;-78
2023/03/07 10:46:29;;;;;;;5.88;4.70;;;;;;;18.61;100.00;99544.53;5052764;28;20084;-77
2023/03/07 10:49:11;;;;;;;7.50;4.78;;;;;;;18.10;100.00;99545.41;5053045;28;20029;-77
2023/03/07 10:51:46;;;;;;;6.40;4.55;;;;;;;18.69;100.00;99544.03;5054214;28;20029;-77
2023/03/07 10:54:15;;;;;;;7.90;4.68;;;;;;;18.60;100.00;99535.16;5055091;28;20488;-76
2023/03/07 10:57:01;;;;;;;6.43;4.90;;;;;;;17.68;100.00;99491.63;5052741;28;20029;-77
2023/03/07 10:59:26;;;;;;;7.97;5.03;;;;;;;18.07;100.00;99481.28;5054789;28;20059;-78
2023/03/07 11:01:55;;;;;;;7.60;4.97;;;;;;;17.79;100.00;99474.56;5054385;28;20029;-78
2023/03/07 11:04:23;;;;;;;6.75;4.72;;;;;;;18.50;100.00;99521.25;5052826;28;20068;-78
2023/03/07 11:06:51;;;;;;;5.97;4.32;;;;;;;19.00;100.00;99523.78;5053897;28;20028;-76
2023/03/07 11:09:28;;;;;;;7.40;5.53;;;;;;;17.04;100.00;99541.06;5054475;28;20032;-76
2023/03/07 11:11:56;;;;;;;7.55;4.72;;;;;;;18.46;100.00;99522.38;5054400;28;20547;-77
2023/03/07 11:14:23;;;;;;;7.13;4.20;;;;;;;18.25;100.00;99513.50;5053459;28;20029;-79
2023/03/07 11:16:58;;;;;;;8.52;5.97;;;;;;;17.71;100.00;99470.84;5053308;28;20028;-79
2023/03/07 11:19:39;;;;;;;6.10;4.80;;;;;;;18.36;100.00;99511.03;5052999;28;20025;-79
2023/03/07 11:22:23;;;;;;;6.05;4.40;;;;;;;18.73;100.00;99509.41;5052899;28;20033;-79